sensor_id;sensor_type;location;lat;lon;timestamp;pressure;altitude;pressure_sealevel;temperature;humidity
12182;BME280;6154;51.550;12.138;2023-07-20T00:01:45;100107.63;;;22.54;57.89
12182;BME280;6154;51.550;12.138;2023-07-20T00:04:14;100096.16;;;22.52;58.08
12182;BME280;6154;51.550;12.138;2023-07-20T00:06:42;100097.00;;;22.52;58.28
12182;BME280;6154;51.550;12.138;2023-07-20T00:09:10;100090.78;;;22.52;58.26
12182;BME280;6154;51.550;12.138;2023-07-20T00:11:39;100090.12;;;22.50;58.26
12182;BME280;6154;51.550;12.138;2023-07-20T00:14:08;100089.28;;;22.49;58.31
12182;BME280;6154;51.550;12.138;2023-07-20T00:16:36;100088.44;;;22.49;58.83
12182;BME280;6154;51.550;12.138;2023-07-20T00:19:05;100086.75;;;22.48;58.52
12182;BME280;6154;51.550;12.138;2023-07-20T00:21:33;100096.16;;;22.44;58.77
12182;BME280;6154;51.550;12.138;2023-07-20T00:24:02;100089.09;;;22.43;58.31
12182;BME280;6154;51.550;12.138;2023-07-20T00:26:30;100097.19;;;22.43;58.44
12182;BME280;6154;51.550;12.138;2023-07-20T00:28:58;100094.00;;;22.39;58.81
12182;BME280;6154;51.550;12.138;2023-07-20T00:31:28;100084.87;;;22.40;58.40
12182;BME280;6154;51.550;12.138;2023-07-20T00:33:59;100085.91;;;22.39;58.70
12182;BME280;6154;51.550;12.138;2023-07-20T00:36:27;100075.97;;;22.40;58.41
12182;BME280;6154;51.550;12.138;2023-07-20T00:38:55;100078.66;;;22.40;58.43
12182;BME280;6154;51.550;12.138;2023-07-20T00:41:23;100076.97;;;22.38;58.29
12182;BME280;6154;51.550;12.138;2023-07-20T00:43:56;100087.75;;;22.38;58.21
12182;BME280;6154;51.550;12.138;2023-07-20T00:46:24;100084.22;;;22.38;58.61
12182;BME280;6154;51.550;12.138;2023-07-20T00:48:55;100093.16;;;22.38;58.93
12182;BME280;6154;51.550;12.138;2023-07-20T00:51:25;100084.87;;;22.40;58.88
12182;BME280;6154;51.550;12.138;2023-07-20T00:53:54;100080.03;;;22.35;59.47
12182;BME280;6154;51.550;12.138;2023-07-20T00:56:23;100088.94;;;22.36;58.76
12182;BME280;6154;51.550;12.138;2023-07-20T00:58:52;100094.16;;;22.37;58.58
12182;BME280;6154;51.550;12.138;2023-07-20T01:01:22;100096.19;;;22.35;58.83
12182;BME280;6154;51.550;12.138;2023-07-20T01:03:50;100097.19;;;22.34;58.83
12182;BME280;6154;51.550;12.138;2023-07-20T01:06:26;100102.91;;;22.31;59.30
12182;BME280;6154;51.550;12.138;2023-07-20T01:09:07;100092.97;;;22.32;60.82
12182;BME280;6154;51.550;12.138;2023-07-20T01:11:40;100096.38;;;22.26;61.83
12182;BME280;6154;51.550;12.138;2023-07-20T01:14:11;100088.94;;;22.20;60.56
12182;BME280;6154;51.550;12.138;2023-07-20T01:16:40;100087.59;;;22.16;60.05
12182;BME280;6154;51.550;12.138;2023-07-20T01:19:08;100088.09;;;22.11;60.66
12182;BME280;6154;51.550;12.138;2023-07-20T01:21:44;100090.78;;;22.11;60.42
12182;BME280;6154;51.550;12.138;2023-07-20T01:24:32;100098.37;;;22.16;62.13
12182;BME280;6154;51.550;12.138;2023-07-20T01:27:23;100087.44;;;22.25;62.90
12182;BME280;6154;51.550;12.138;2023-07-20T01:30:08;100090.12;;;22.17;64.10
12182;BME280;6154;51.550;12.138;2023-07-20T01:32:41;100087.75;;;22.30;61.77
12182;BME280;6154;51.550;12.138;2023-07-20T01:35:13;100085.06;;;22.30;59.51
12182;BME280;6154;51.550;12.138;2023-07-20T01:37:43;100081.69;;;22.28;59.25
12182;BME280;6154;51.550;12.138;2023-07-20T01:40:13;100081.00;;;22.34;59.53
12182;BME280;6154;51.550;12.138;2023-07-20T01:42:45;100085.56;;;22.34;59.29
12182;BME280;6154;51.550;12.138;2023-07-20T01:45:14;100082.72;;;22.35;59.85
12182;BME280;6154;51.550;12.138;2023-07-20T01:47:44;100080.34;;;22.32;59.15
12182;BME280;6154;51.550;12.138;2023-07-20T01:50:12;100079.84;;;22.37;59.11
12182;BME280;6154;51.550;12.138;2023-07-20T01:52:41;100076.12;;;22.38;58.79
12182;BME280;6154;51.550;12.138;2023-07-20T01:55:09;100073.59;;;22.28;59.31
12182;BME280;6154;51.550;12.138;2023-07-20T01:57:37;100082.03;;;22.25;59.46
12182;BME280;6154;51.550;12.138;2023-07-20T02:00:07;100073.78;;;22.27;59.23
12182;BME280;6154;51.550;12.138;2023-07-20T02:02:41;100076.97;;;22.22;59.91
12182;BME280;6154;51.550;12.138;2023-07-20T02:05:11;100080.19;;;22.26;59.21
12182;BME280;6154;51.550;12.138;2023-07-20T02:07:39;100082.03;;;22.25;59.92
12182;BME280;6154;51.550;12.138;2023-07-20T02:10:08;100087.41;;;22.17;59.79
12182;BME280;6154;51.550;12.138;2023-07-20T02:12:37;100092.81;;;22.17;59.53
12182;BME280;6154;51.550;12.138;2023-07-20T02:15:06;100099.91;;;22.26;59.63
12182;BME280;6154;51.550;12.138;2023-07-20T02:17:35;100099.22;;;22.32;59.00
12182;BME280;6154;51.550;12.138;2023-07-20T02:20:05;100094.16;;;22.29;59.62
12182;BME280;6154;51.550;12.138;2023-07-20T02:22:37;100099.91;;;22.26;59.47
12182;BME280;6154;51.550;12.138;2023-07-20T02:25:07;100108.66;;;22.28;59.45
12182;BME280;6154;51.550;12.138;2023-07-20T02:27:36;100101.59;;;22.27;60.09
12182;BME280;6154;51.550;12.138;2023-07-20T02:30:06;100106.62;;;22.30;59.52
12182;BME280;6154;51.550;12.138;2023-07-20T02:32:36;100104.59;;;22.32;59.36
12182;BME280;6154;51.550;12.138;2023-07-20T02:35:05;100109.69;;;22.35;59.05
12182;BME280;6154;51.550;12.138;2023-07-20T02:37:34;100108.50;;;22.38;58.86
12182;BME280;6154;51.550;12.138;2023-07-20T02:40:04;100114.22;;;22.35;59.36
12182;BME280;6154;51.550;12.138;2023-07-20T02:42:34;100109.81;;;22.34;60.22
12182;BME280;6154;51.550;12.138;2023-07-20T02:45:03;100106.62;;;22.30;59.72
12182;BME280;6154;51.550;12.138;2023-07-20T02:47:32;100109.16;;;22.32;59.60
12182;BME280;6154;51.550;12.138;2023-07-20T02:50:00;100112.22;;;22.37;59.36
12182;BME280;6154;51.550;12.138;2023-07-20T02:52:30;100107.97;;;22.34;59.45
12182;BME280;6154;51.550;12.138;2023-07-20T02:54:58;100116.06;;;22.34;59.89
12182;BME280;6154;51.550;12.138;2023-07-20T02:57:28;100120.12;;;22.38;59.39
12182;BME280;6154;51.550;12.138;2023-07-20T02:59:56;100118.44;;;22.37;59.67
12182;BME280;6154;51.550;12.138;2023-07-20T03:02:24;100120.78;;;22.32;61.43
12182;BME280;6154;51.550;12.138;2023-07-20T03:04:53;100124.66;;;22.30;60.12
12182;BME280;6154;51.550;12.138;2023-07-20T03:07:21;100119.94;;;22.32;59.92
12182;BME280;6154;51.550;12.138;2023-07-20T03:09:49;100126.53;;;22.37;59.19
12182;BME280;6154;51.550;12.138;2023-07-20T03:12:18;100122.81;;;22.30;60.51
12182;BME280;6154;51.550;12.138;2023-07-20T03:14:48;100119.09;;;22.31;59.55
12182;BME280;6154;51.550;12.138;2023-07-20T03:17:16;100126.19;;;22.32;59.36
12182;BME280;6154;51.550;12.138;2023-07-20T03:19:44;100123.81;;;22.29;59.53
12182;BME280;6154;51.550;12.138;2023-07-20T03:22:13;100126.03;;;22.26;60.58
12182;BME280;6154;51.550;12.138;2023-07-20T03:24:41;100131.75;;;22.31;59.06
12182;BME280;6154;51.550;12.138;2023-07-20T03:27:09;100131.41;;;22.34;59.04
12182;BME280;6154;51.550;12.138;2023-07-20T03:29:38;100132.41;;;22.33;59.48
12182;BME280;6154;51.550;12.138;2023-07-20T03:32:08;100129.03;;;22.31;59.15
12182;BME280;6154;51.550;12.138;2023-07-20T03:34:37;100125.19;;;22.25;60.92
12182;BME280;6154;51.550;12.138;2023-07-20T03:37:05;100126.84;;;22.18;60.30
12182;BME280;6154;51.550;12.138;2023-07-20T03:39:33;100128.00;;;22.24;59.81
12182;BME280;6154;51.550;12.138;2023-07-20T03:42:03;100131.72;;;22.23;59.98
12182;BME280;6154;51.550;12.138;2023-07-20T03:44:33;100138.66;;;22.25;59.70
12182;BME280;6154;51.550;12.138;2023-07-20T03:47:02;100129.38;;;22.28;60.02
12182;BME280;6154;51.550;12.138;2023-07-20T03:49:33;100133.94;;;22.27;59.51
12182;BME280;6154;51.550;12.138;2023-07-20T03:52:01;100131.91;;;22.29;59.39
12182;BME280;6154;51.550;12.138;2023-07-20T03:54:30;100127.00;;;22.33;59.17
12182;BME280;6154;51.550;12.138;2023-07-20T03:56:58;100135.28;;;22.31;59.67
12182;BME280;6154;51.550;12.138;2023-07-20T03:59:27;100124.00;;;22.28;60.32
12182;BME280;6154;51.550;12.138;2023-07-20T04:01:55;100118.75;;;22.34;59.27
12182;BME280;6154;51.550;12.138;2023-07-20T04:04:24;100120.97;;;22.39;58.95
12182;BME280;6154;51.550;12.138;2023-07-20T04:06:53;100118.94;;;22.41;58.92
12182;BME280;6154;51.550;12.138;2023-07-20T04:09:22;100132.78;;;22.46;58.90
12182;BME280;6154;51.550;12.138;2023-07-20T04:11:50;100135.28;;;22.48;58.78
12182;BME280;6154;51.550;12.138;2023-07-20T04:14:18;100140.53;;;22.49;58.69
12182;BME280;6154;51.550;12.138;2023-07-20T04:16:47;100144.06;;;22.50;58.89
12182;BME280;6154;51.550;12.138;2023-07-20T04:19:15;100144.06;;;22.50;58.70
12182;BME280;6154;51.550;12.138;2023-07-20T04:21:45;100148.78;;;22.56;58.54
12182;BME280;6154;51.550;12.138;2023-07-20T04:24:14;100150.13;;;22.44;59.43
12182;BME280;6154;51.550;12.138;2023-07-20T04:26:43;100156.53;;;22.43;59.04
12182;BME280;6154;51.550;12.138;2023-07-20T04:29:11;100150.78;;;22.54;58.70
12182;BME280;6154;51.550;12.138;2023-07-20T04:31:39;100150.28;;;22.50;59.35
12182;BME280;6154;51.550;12.138;2023-07-20T04:34:08;100163.28;;;22.63;58.61
12182;BME280;6154;51.550;12.138;2023-07-20T04:36:36;100169.69;;;22.62;58.54
12182;BME280;6154;51.550;12.138;2023-07-20T04:39:04;100165.78;;;22.64;58.56
12182;BME280;6154;51.550;12.138;2023-07-20T04:41:45;100172.72;;;22.67;58.74
12182;BME280;6154;51.550;12.138;2023-07-20T04:44:14;100170.19;;;22.74;58.88
12182;BME280;6154;51.550;12.138;2023-07-20T04:46:42;100164.97;;;22.72;58.57
12182;BME280;6154;51.550;12.138;2023-07-20T04:49:13;100164.62;;;22.75;58.48
12182;BME280;6154;51.550;12.138;2023-07-20T04:51:42;100159.37;;;22.82;58.55
12182;BME280;6154;51.550;12.138;2023-07-20T04:54:10;100160.22;;;22.82;58.67
12182;BME280;6154;51.550;12.138;2023-07-20T04:56:38;100169.91;;;22.85;58.55
12182;BME280;6154;51.550;12.138;2023-07-20T04:59:08;100171.59;;;22.86;58.60
12182;BME280;6154;51.550;12.138;2023-07-20T05:01:36;100177.47;;;22.89;58.53
12182;BME280;6154;51.550;12.138;2023-07-20T05:04:05;100171.72;;;22.84;59.11
12182;BME280;6154;51.550;12.138;2023-07-20T05:06:38;100167.31;;;22.83;58.80
12182;BME280;6154;51.550;12.138;2023-07-20T05:09:06;100174.25;;;22.94;58.80
12182;BME280;6154;51.550;12.138;2023-07-20T05:11:34;100184.19;;;22.93;59.00
12182;BME280;6154;51.550;12.138;2023-07-20T05:14:03;100172.56;;;23.01;58.59
12182;BME280;6154;51.550;12.138;2023-07-20T05:16:32;100180.34;;;22.96;59.93
12182;BME280;6154;51.550;12.138;2023-07-20T05:19:01;100172.72;;;23.00;58.75
12182;BME280;6154;51.550;12.138;2023-07-20T05:21:29;100178.97;;;23.08;58.37
12182;BME280;6154;51.550;12.138;2023-07-20T05:23:57;100175.56;;;23.14;58.33
12182;BME280;6154;51.550;12.138;2023-07-20T05:26:25;100179.44;;;23.20;58.28
12182;BME280;6154;51.550;12.138;2023-07-20T05:28:53;100186.16;;;23.32;58.34
12182;BME280;6154;51.550;12.138;2023-07-20T05:31:22;100179.44;;;23.28;59.28
12182;BME280;6154;51.550;12.138;2023-07-20T05:33:51;100181.94;;;23.38;58.37
12182;BME280;6154;51.550;12.138;2023-07-20T05:36:20;100174.66;;;23.46;58.28
12182;BME280;6154;51.550;12.138;2023-07-20T05:38:49;100183.78;;;23.45;58.31
12182;BME280;6154;51.550;12.138;2023-07-20T05:41:17;100177.31;;;23.55;58.14
12182;BME280;6154;51.550;12.138;2023-07-20T05:43:46;100177.81;;;23.58;58.00
12182;BME280;6154;51.550;12.138;2023-07-20T05:46:15;100175.13;;;23.66;58.18
12182;BME280;6154;51.550;12.138;2023-07-20T05:48:44;100185.25;;;23.64;57.99
12182;BME280;6154;51.550;12.138;2023-07-20T05:51:13;100180.16;;;23.69;57.82
12182;BME280;6154;51.550;12.138;2023-07-20T05:53:43;100185.41;;;23.63;58.67
12182;BME280;6154;51.550;12.138;2023-07-20T05:56:11;100188.56;;;23.74;57.69
12182;BME280;6154;51.550;12.138;2023-07-20T05:58:39;100185.94;;;23.66;58.13
12182;BME280;6154;51.550;12.138;2023-07-20T06:01:07;100181.38;;;23.67;57.79
12182;BME280;6154;51.550;12.138;2023-07-20T06:03:36;100186.78;;;23.67;57.60
12182;BME280;6154;51.550;12.138;2023-07-20T06:06:04;100189.41;;;23.75;57.46
12182;BME280;6154;51.550;12.138;2023-07-20T06:08:34;100190.41;;;23.82;58.21
12182;BME280;6154;51.550;12.138;2023-07-20T06:11:03;100182.59;;;23.95;57.21
12182;BME280;6154;51.550;12.138;2023-07-20T06:13:31;100187.25;;;24.09;57.65
12182;BME280;6154;51.550;12.138;2023-07-20T06:16:00;100189.53;;;24.21;57.94
12182;BME280;6154;51.550;12.138;2023-07-20T06:18:29;100179.34;;;24.54;57.21
12182;BME280;6154;51.550;12.138;2023-07-20T06:20:57;100186.50;;;24.70;56.98
12182;BME280;6154;51.550;12.138;2023-07-20T06:23:26;100186.37;;;24.86;56.68
12182;BME280;6154;51.550;12.138;2023-07-20T06:25:55;100193.34;;;24.80;56.72
12182;BME280;6154;51.550;12.138;2023-07-20T06:28:24;100190.66;;;24.80;56.28
12182;BME280;6154;51.550;12.138;2023-07-20T06:30:52;100194.44;;;24.71;56.51
12182;BME280;6154;51.550;12.138;2023-07-20T06:33:20;100195.59;;;24.77;56.23
12182;BME280;6154;51.550;12.138;2023-07-20T06:35:49;100193.56;;;24.93;56.47
12182;BME280;6154;51.550;12.138;2023-07-20T06:38:17;100194.84;;;24.83;56.18
12182;BME280;6154;51.550;12.138;2023-07-20T06:40:48;100186.47;;;24.92;55.98
12182;BME280;6154;51.550;12.138;2023-07-20T06:43:18;100194.59;;;24.92;55.87
12182;BME280;6154;51.550;12.138;2023-07-20T06:45:51;100188.16;;;24.93;55.74
12182;BME280;6154;51.550;12.138;2023-07-20T06:48:21;100179.91;;;25.10;55.87
12182;BME280;6154;51.550;12.138;2023-07-20T06:50:49;100188.28;;;25.00;55.61
12182;BME280;6154;51.550;12.138;2023-07-20T06:53:17;100198.06;;;25.01;55.39
12182;BME280;6154;51.550;12.138;2023-07-20T06:55:45;100194.19;;;24.81;55.50
12182;BME280;6154;51.550;12.138;2023-07-20T06:58:20;100191.81;;;24.86;55.23
12182;BME280;6154;51.550;12.138;2023-07-20T07:00:49;100198.72;;;24.88;55.41
12182;BME280;6154;51.550;12.138;2023-07-20T07:03:17;100187.94;;;25.03;55.19
12182;BME280;6154;51.550;12.138;2023-07-20T07:05:46;100204.66;;;25.07;55.39
12182;BME280;6154;51.550;12.138;2023-07-20T07:08:17;100192.44;;;25.11;55.17
12182;BME280;6154;51.550;12.138;2023-07-20T07:10:45;100200.38;;;25.12;54.97
12182;BME280;6154;51.550;12.138;2023-07-20T07:13:13;100193.66;;;25.08;55.46
12182;BME280;6154;51.550;12.138;2023-07-20T07:15:43;100196.69;;;25.05;54.62
12182;BME280;6154;51.550;12.138;2023-07-20T07:18:11;100193.88;;;24.99;54.79
12182;BME280;6154;51.550;12.138;2023-07-20T07:20:40;100203.16;;;25.04;54.64
12182;BME280;6154;51.550;12.138;2023-07-20T07:23:08;100207.00;;;25.10;54.89
12182;BME280;6154;51.550;12.138;2023-07-20T07:25:36;100204.56;;;25.15;54.68
12182;BME280;6154;51.550;12.138;2023-07-20T07:28:05;100209.28;;;24.98;54.88
12182;BME280;6154;51.550;12.138;2023-07-20T07:30:33;100205.72;;;25.20;54.55
12182;BME280;6154;51.550;12.138;2023-07-20T07:33:03;100204.13;;;25.41;54.57
12182;BME280;6154;51.550;12.138;2023-07-20T07:35:31;100197.59;;;25.50;54.38
12182;BME280;6154;51.550;12.138;2023-07-20T07:37:59;100209.38;;;25.57;54.56
12182;BME280;6154;51.550;12.138;2023-07-20T07:40:45;100199.47;;;25.49;54.04
12182;BME280;6154;51.550;12.138;2023-07-20T07:43:13;100205.84;;;25.57;54.11
12182;BME280;6154;51.550;12.138;2023-07-20T07:45:41;100220.06;;;25.73;53.84
12182;BME280;6154;51.550;12.138;2023-07-20T07:48:11;100208.88;;;26.13;54.15
12182;BME280;6154;51.550;12.138;2023-07-20T07:50:41;100210.41;;;26.36;53.75
12182;BME280;6154;51.550;12.138;2023-07-20T07:53:09;100212.25;;;26.51;53.07
12182;BME280;6154;51.550;12.138;2023-07-20T07:55:38;100205.66;;;26.60;53.02
12182;BME280;6154;51.550;12.138;2023-07-20T07:58:06;100211.16;;;26.67;52.82
12182;BME280;6154;51.550;12.138;2023-07-20T08:00:35;100208.25;;;26.68;52.84
12182;BME280;6154;51.550;12.138;2023-07-20T08:03:03;100214.41;;;26.77;52.68
12182;BME280;6154;51.550;12.138;2023-07-20T08:05:33;100208.06;;;26.70;52.69
12182;BME280;6154;51.550;12.138;2023-07-20T08:08:05;100206.72;;;26.59;52.55
12182;BME280;6154;51.550;12.138;2023-07-20T08:10:33;100215.72;;;26.45;52.74
12182;BME280;6154;51.550;12.138;2023-07-20T08:13:01;100217.19;;;26.26;52.86
12182;BME280;6154;51.550;12.138;2023-07-20T08:15:29;100217.03;;;26.34;52.50
12182;BME280;6154;51.550;12.138;2023-07-20T08:17:57;100208.00;;;26.27;52.57
12182;BME280;6154;51.550;12.138;2023-07-20T08:20:26;100213.94;;;26.52;52.72
12182;BME280;6154;51.550;12.138;2023-07-20T08:22:55;100228.03;;;26.62;52.67
12182;BME280;6154;51.550;12.138;2023-07-20T08:25:25;100221.19;;;26.66;52.60
12182;BME280;6154;51.550;12.138;2023-07-20T08:27:53;100216.28;;;26.76;51.99
12182;BME280;6154;51.550;12.138;2023-07-20T08:30:22;100217.13;;;26.77;51.68
12182;BME280;6154;51.550;12.138;2023-07-20T08:32:51;100215.59;;;26.53;51.67
12182;BME280;6154;51.550;12.138;2023-07-20T08:35:19;100224.03;;;26.58;51.75
12182;BME280;6154;51.550;12.138;2023-07-20T08:37:49;100219.47;;;26.65;51.62
12182;BME280;6154;51.550;12.138;2023-07-20T08:40:20;100219.34;;;26.94;51.62
12182;BME280;6154;51.550;12.138;2023-07-20T08:42:49;100221.19;;;27.09;50.82
12182;BME280;6154;51.550;12.138;2023-07-20T08:45:18;100214.25;;;27.34;49.51
12182;BME280;6154;51.550;12.138;2023-07-20T08:47:46;100208.16;;;27.60;49.83
12182;BME280;6154;51.550;12.138;2023-07-20T08:50:16;100210.44;;;27.63;50.41
12182;BME280;6154;51.550;12.138;2023-07-20T08:52:44;100211.44;;;27.84;50.40
12182;BME280;6154;51.550;12.138;2023-07-20T08:55:12;100217.66;;;27.71;50.13
12182;BME280;6154;51.550;12.138;2023-07-20T09:01:00;100218.75;;;27.20;49.58
12182;BME280;6154;51.550;12.138;2023-07-20T09:03:33;100223.78;;;27.24;49.65
12182;BME280;6154;51.550;12.138;2023-07-20T09:06:01;100219.09;;;27.39;50.03
12182;BME280;6154;51.550;12.138;2023-07-20T09:08:29;100219.44;;;27.29;49.72
12182;BME280;6154;51.550;12.138;2023-07-20T09:10:57;100221.03;;;27.17;49.68
12182;BME280;6154;51.550;12.138;2023-07-20T09:13:25;100220.78;;;26.90;49.84
12182;BME280;6154;51.550;12.138;2023-07-20T09:15:54;100217.47;;;26.74;49.91
12182;BME280;6154;51.550;12.138;2023-07-20T09:18:25;100220.28;;;26.59;50.18
12182;BME280;6154;51.550;12.138;2023-07-20T09:20:57;100220.41;;;26.00;50.77
12182;BME280;6154;51.550;12.138;2023-07-20T09:23:31;100232.78;;;25.88;51.89
12182;BME280;6154;51.550;12.138;2023-07-20T09:26:00;100235.94;;;25.47;52.07
12182;BME280;6154;51.550;12.138;2023-07-20T09:28:28;100239.38;;;25.41;51.98
12182;BME280;6154;51.550;12.138;2023-07-20T09:30:56;100245.62;;;25.27;51.69
12182;BME280;6154;51.550;12.138;2023-07-20T09:33:26;100244.00;;;24.94;52.51
12182;BME280;6154;51.550;12.138;2023-07-20T09:36:02;100252.91;;;24.80;54.05
12182;BME280;6154;51.550;12.138;2023-07-20T09:38:50;100259.69;;;24.53;55.68
12182;BME280;6154;51.550;12.138;2023-07-20T09:41:21;100261.50;;;24.38;54.41
12182;BME280;6154;51.550;12.138;2023-07-20T09:43:53;100254.50;;;24.44;53.90
12182;BME280;6154;51.550;12.138;2023-07-20T09:46:22;100258.38;;;24.49;54.83
12182;BME280;6154;51.550;12.138;2023-07-20T09:48:54;100251.28;;;24.48;55.34
12182;BME280;6154;51.550;12.138;2023-07-20T09:51:26;100259.97;;;24.67;55.49
12182;BME280;6154;51.550;12.138;2023-07-20T09:53:54;100269.94;;;24.89;54.01
12182;BME280;6154;51.550;12.138;2023-07-20T09:56:24;100265.03;;;25.15;53.99
12182;BME280;6154;51.550;12.138;2023-07-20T09:58:53;100264.34;;;25.36;54.46
12182;BME280;6154;51.550;12.138;2023-07-20T10:01:22;100266.78;;;25.46;54.33
12182;BME280;6154;51.550;12.138;2023-07-20T10:03:54;100263.03;;;25.62;54.22
12182;BME280;6154;51.550;12.138;2023-07-20T10:06:29;100266.53;;;25.85;54.38
12182;BME280;6154;51.550;12.138;2023-07-20T10:09:02;100262.88;;;26.07;53.57
12182;BME280;6154;51.550;12.138;2023-07-20T10:11:35;100260.59;;;26.26;54.19
12182;BME280;6154;51.550;12.138;2023-07-20T10:14:04;100259.12;;;26.59;54.43
12182;BME280;6154;51.550;12.138;2023-07-20T10:16:35;100256.09;;;26.90;53.98
12182;BME280;6154;51.550;12.138;2023-07-20T10:19:10;100257.53;;;27.08;53.40
12182;BME280;6154;51.550;12.138;2023-07-20T10:21:48;100261.59;;;27.18;53.61
12182;BME280;6154;51.550;12.138;2023-07-20T10:24:25;100265.44;;;27.03;53.07
12182;BME280;6154;51.550;12.138;2023-07-20T10:26:55;100260.25;;;27.08;53.05
12182;BME280;6154;51.550;12.138;2023-07-20T10:29:23;100261.41;;;26.99;53.25
12182;BME280;6154;51.550;12.138;2023-07-20T10:31:52;100269.69;;;27.12;53.19
12182;BME280;6154;51.550;12.138;2023-07-20T10:34:23;100266.72;;;27.28;53.13
12182;BME280;6154;51.550;12.138;2023-07-20T10:36:52;100271.00;;;27.16;53.53
12182;BME280;6154;51.550;12.138;2023-07-20T10:39:24;100268.28;;;27.44;53.09
12182;BME280;6154;51.550;12.138;2023-07-20T10:42:02;100269.22;;;27.58;53.02
12182;BME280;6154;51.550;12.138;2023-07-20T10:44:30;100275.72;;;27.91;53.14
12182;BME280;6154;51.550;12.138;2023-07-20T10:46:59;100274.25;;;27.89;52.43
12182;BME280;6154;51.550;12.138;2023-07-20T10:49:32;100263.28;;;27.47;53.08
12182;BME280;6154;51.550;12.138;2023-07-20T10:52:04;100266.72;;;27.63;52.61
12182;BME280;6154;51.550;12.138;2023-07-20T10:54:48;100274.16;;;27.47;52.16
12182;BME280;6154;51.550;12.138;2023-07-20T10:57:25;100273.63;;;27.59;52.64
12182;BME280;6154;51.550;12.138;2023-07-20T11:00:10;100270.84;;;27.52;52.33
12182;BME280;6154;51.550;12.138;2023-07-20T11:02:46;100286.91;;;27.68;53.20
12182;BME280;6154;51.550;12.138;2023-07-20T11:05:38;100270.44;;;27.55;52.18
12182;BME280;6154;51.550;12.138;2023-07-20T11:08:10;100273.97;;;27.77;52.29
12182;BME280;6154;51.550;12.138;2023-07-20T11:10:39;100272.16;;;27.63;51.82
12182;BME280;6154;51.550;12.138;2023-07-20T11:13:21;100267.94;;;27.54;51.96
12182;BME280;6154;51.550;12.138;2023-07-20T11:16:02;100275.22;;;27.46;50.95
12182;BME280;6154;51.550;12.138;2023-07-20T11:18:33;100270.41;;;27.48;50.60
12182;BME280;6154;51.550;12.138;2023-07-20T11:21:07;100269.03;;;27.59;51.11
12182;BME280;6154;51.550;12.138;2023-07-20T11:23:38;100274.94;;;27.41;50.02
12182;BME280;6154;51.550;12.138;2023-07-20T11:26:06;100277.78;;;27.27;50.75
12182;BME280;6154;51.550;12.138;2023-07-20T11:28:35;100270.16;;;27.71;50.71
12182;BME280;6154;51.550;12.138;2023-07-20T11:31:03;100271.91;;;27.79;50.36
12182;BME280;6154;51.550;12.138;2023-07-20T11:33:31;100273.63;;;27.93;49.94
12182;BME280;6154;51.550;12.138;2023-07-20T11:35:59;100277.81;;;27.96;49.35
12182;BME280;6154;51.550;12.138;2023-07-20T11:38:29;100273.63;;;27.93;49.09
12182;BME280;6154;51.550;12.138;2023-07-20T11:40:57;100277.87;;;28.02;49.38
12182;BME280;6154;51.550;12.138;2023-07-20T11:43:25;100271.69;;;28.22;49.22
12182;BME280;6154;51.550;12.138;2023-07-20T11:45:54;100269.38;;;28.25;47.96
12182;BME280;6154;51.550;12.138;2023-07-20T11:48:22;100268.84;;;28.43;48.74
12182;BME280;6154;51.550;12.138;2023-07-20T11:50:50;100272.09;;;28.19;48.83
12182;BME280;6154;51.550;12.138;2023-07-20T11:53:19;100266.31;;;27.87;47.85
12182;BME280;6154;51.550;12.138;2023-07-20T11:55:49;100267.72;;;27.83;48.18
12182;BME280;6154;51.550;12.138;2023-07-20T11:58:18;100272.91;;;28.13;48.32
12182;BME280;6154;51.550;12.138;2023-07-20T12:00:46;100262.56;;;28.36;48.41
12182;BME280;6154;51.550;12.138;2023-07-20T12:03:14;100272.22;;;28.45;47.64
12182;BME280;6154;51.550;12.138;2023-07-20T12:05:42;100276.28;;;28.21;48.22
12182;BME280;6154;51.550;12.138;2023-07-20T12:08:28;100273.41;;;27.88;48.47
12182;BME280;6154;51.550;12.138;2023-07-20T12:10:57;100272.38;;;27.33;48.88
12182;BME280;6154;51.550;12.138;2023-07-20T12:13:35;100284.13;;;27.12;49.45
12182;BME280;6154;51.550;12.138;2023-07-20T12:16:11;100291.53;;;26.82;48.97
12182;BME280;6154;51.550;12.138;2023-07-20T12:18:40;100288.69;;;26.90;50.30
12182;BME280;6154;51.550;12.138;2023-07-20T12:21:09;100288.91;;;26.89;49.69
12182;BME280;6154;51.550;12.138;2023-07-20T12:23:38;100281.53;;;27.04;49.08
12182;BME280;6154;51.550;12.138;2023-07-20T12:26:09;100285.88;;;27.48;48.89
12182;BME280;6154;51.550;12.138;2023-07-20T12:28:41;100286.41;;;27.93;49.07
12182;BME280;6154;51.550;12.138;2023-07-20T12:31:10;100291.13;;;28.12;47.39
12182;BME280;6154;51.550;12.138;2023-07-20T12:33:40;100279.12;;;28.41;47.92
12182;BME280;6154;51.550;12.138;2023-07-20T12:36:08;100280.19;;;28.47;47.70
12182;BME280;6154;51.550;12.138;2023-07-20T12:38:37;100279.41;;;28.59;47.78
12182;BME280;6154;51.550;12.138;2023-07-20T12:41:05;100275.72;;;28.94;47.24
12182;BME280;6154;51.550;12.138;2023-07-20T12:43:35;100281.81;;;29.02;46.78
12182;BME280;6154;51.550;12.138;2023-07-20T12:46:03;100276.72;;;28.79;46.41
12182;BME280;6154;51.550;12.138;2023-07-20T12:48:31;100281.28;;;28.66;45.86
12182;BME280;6154;51.550;12.138;2023-07-20T12:50:59;100273.47;;;28.43;46.16
12182;BME280;6154;51.550;12.138;2023-07-20T12:53:27;100276.22;;;28.49;45.70
12182;BME280;6154;51.550;12.138;2023-07-20T12:55:56;100280.47;;;28.24;45.70
12182;BME280;6154;51.550;12.138;2023-07-20T12:58:24;100266.59;;;28.47;45.00
12182;BME280;6154;51.550;12.138;2023-07-20T13:00:53;100265.75;;;28.46;45.23
12182;BME280;6154;51.550;12.138;2023-07-20T13:03:22;100268.03;;;28.43;45.33
12182;BME280;6154;51.550;12.138;2023-07-20T13:05:53;100276.50;;;28.68;44.98
12182;BME280;6154;51.550;12.138;2023-07-20T13:08:24;100265.72;;;28.40;44.45